createdAt,value
2023-01-01T00:00:16.651Z,29.743
2023-01-01T00:05:16.801Z,29.738
2023-01-01T00:10:16.291Z,29.737
2023-01-01T00:15:16.528Z,29.731
2023-01-01T00:20:16.731Z,29.726
2023-01-01T00:25:16.388Z,29.722
2023-01-01T00:30:16.464Z,29.717
2023-01-01T00:35:16.605Z,29.714
2023-01-01T00:40:16.703Z,29.710
2023-01-01T00:45:21.327Z,29.708
2023-01-01T00:50:16.636Z,29.704
2023-01-01T00:55:16.481Z,29.702
2023-01-01T01:00:16.520Z,29.695
2023-01-01T01:05:16.482Z,29.690
2023-01-01T01:10:16.452Z,29.686
2023-01-01T01:15:16.593Z,29.685
2023-01-01T01:20:16.788Z,29.679
2023-01-01T01:25:16.677Z,29.680
2023-01-01T01:30:16.528Z,29.684
2023-01-01T01:35:16.656Z,29.683
2023-01-01T01:40:16.583Z,29.676
2023-01-01T01:45:16.895Z,29.675
2023-01-01T01:50:16.913Z,29.672
2023-01-01T01:55:16.527Z,29.672
2023-01-01T02:00:16.727Z,29.672
2023-01-01T02:05:16.785Z,29.672
2023-01-01T02:10:16.611Z,29.673
2023-01-01T02:15:17.042Z,29.673
2023-01-01T02:20:16.873Z,29.668
2023-01-01T02:25:16.808Z,29.666
2023-01-01T02:30:16.857Z,29.666
2023-01-01T02:35:17.359Z,29.664
2023-01-01T02:40:16.717Z,29.658
2023-01-01T02:45:16.696Z,29.655
2023-01-01T02:50:16.832Z,29.654
2023-01-01T02:55:16.919Z,29.651
2023-01-01T03:00:17.025Z,29.646
2023-01-01T03:05:16.770Z,29.644
2023-01-01T03:10:16.833Z,29.639
2023-01-01T03:15:16.763Z,29.638
2023-01-01T03:20:17.010Z,29.636
2023-01-01T03:25:16.870Z,29.634
2023-01-01T03:30:16.832Z,29.633
2023-01-01T03:35:17.087Z,29.631
2023-01-01T03:40:16.906Z,29.630
2023-01-01T03:45:17.038Z,29.626
2023-01-01T03:50:17.228Z,29.621
2023-01-01T03:55:16.873Z,29.618
2023-01-01T04:00:16.840Z,29.615
2023-01-01T04:05:17.235Z,29.612
2023-01-01T04:10:17.432Z,29.608
2023-01-01T04:15:17.089Z,29.605
2023-01-01T04:20:17.066Z,29.601
2023-01-01T04:25:16.921Z,29.597
2023-01-01T04:30:16.981Z,29.596
2023-01-01T04:35:17.163Z,29.593
2023-01-01T04:40:17.067Z,29.591
2023-01-01T04:45:17.255Z,29.592
2023-01-01T04:50:17.058Z,29.590
2023-01-01T04:55:17.172Z,29.587
2023-01-01T05:00:18.123Z,29.584
2023-01-01T05:05:18.663Z,29.583
2023-01-01T05:10:18.175Z,29.579
2023-01-01T05:15:18.487Z,29.575
2023-01-01T05:20:18.289Z,29.572
2023-01-01T05:25:18.169Z,29.571
2023-01-01T05:30:18.245Z,29.564
2023-01-01T05:35:24.493Z,29.553
2023-01-01T05:40:18.257Z,29.554
2023-01-01T05:45:16.185Z,29.552
2023-01-01T05:50:16.344Z,29.549
2023-01-01T05:55:16.214Z,29.549
2023-01-01T06:00:16.226Z,29.550
2023-01-01T06:05:16.557Z,29.546
2023-01-01T06:10:16.347Z,29.545
2023-01-01T06:15:16.487Z,29.542
2023-01-01T06:20:16.675Z,29.545
2023-01-01T06:25:16.417Z,29.548
2023-01-01T06:30:16.405Z,29.546
2023-01-01T06:35:16.452Z,29.541
2023-01-01T06:40:16.367Z,29.535
2023-01-01T06:45:16.272Z,29.543
2023-01-01T06:50:16.600Z,29.547
2023-01-01T06:55:16.386Z,29.546
2023-01-01T07:00:16.632Z,29.543
2023-01-01T07:05:16.474Z,29.541
2023-01-01T07:10:16.513Z,29.531
2023-01-01T07:15:16.627Z,29.529
2023-01-01T07:20:16.546Z,29.525
2023-01-01T07:25:17.041Z,29.518
2023-01-01T07:30:16.542Z,29.521
2023-01-01T07:35:17.062Z,29.515
2023-01-01T07:40:16.559Z,29.500
2023-01-01T07:45:16.687Z,29.496
2023-01-01T07:50:16.563Z,29.485
2023-01-01T07:55:16.691Z,29.491
2023-01-01T08:00:16.690Z,29.493
2023-01-01T08:05:19.926Z,29.495
2023-01-01T08:10:16.888Z,29.504
2023-01-01T08:15:16.587Z,29.502
2023-01-01T08:20:16.603Z,29.510
2023-01-01T08:25:16.958Z,29.517
2023-01-01T08:30:16.803Z,29.522
2023-01-01T08:35:17.066Z,29.522
2023-01-01T08:40:18.991Z,29.511
2023-01-01T08:45:16.666Z,29.507
2023-01-01T08:50:16.997Z,29.506
2023-01-01T08:55:16.714Z,29.509
2023-01-01T09:00:16.776Z,29.511
2023-01-01T09:05:16.786Z,29.510
2023-01-01T09:10:16.813Z,29.502
2023-01-01T09:15:16.997Z,29.506
2023-01-01T09:20:16.824Z,29.504
2023-01-01T09:25:16.789Z,29.505
2023-01-01T09:30:16.794Z,29.510
2023-01-01T09:35:17.035Z,29.515
2023-01-01T09:40:16.804Z,29.513
2023-01-01T09:45:17.025Z,29.512
2023-01-01T09:50:17.190Z,29.514
2023-01-01T09:55:16.812Z,29.510
2023-01-01T10:00:16.948Z,29.509
2023-01-01T10:05:17.203Z,29.508
2023-01-01T10:10:16.933Z,29.508
2023-01-01T10:15:16.876Z,29.509
2023-01-01T10:20:17.073Z,29.509
2023-01-01T10:25:17.065Z,29.508
2023-01-01T10:30:16.979Z,29.513
2023-01-01T10:35:17.010Z,29.516
2023-01-01T10:40:17.181Z,29.513
2023-01-01T10:45:17.087Z,29.516
2023-01-01T10:50:17.183Z,29.516
2023-01-01T10:55:17.260Z,29.517
2023-01-01T11:00:17.192Z,29.516
2023-01-01T11:05:21.666Z,29.519
2023-01-01T11:10:17.055Z,29.521
2023-01-01T11:15:17.176Z,29.525
2023-01-01T11:20:17.521Z,29.522
2023-01-01T11:25:17.154Z,29.525
2023-01-01T11:30:17.142Z,29.528
2023-01-01T11:35:17.412Z,29.531
2023-01-01T11:40:17.308Z,29.529
2023-01-01T11:45:17.122Z,29.532
2023-01-01T11:50:17.319Z,29.532
2023-01-01T11:55:17.414Z,29.536
2023-01-01T12:00:17.229Z,29.534
2023-01-01T12:05:17.471Z,29.537
2023-01-01T12:10:17.677Z,29.538
2023-01-01T12:15:17.197Z,29.538
2023-01-01T12:20:17.386Z,29.541
2023-01-01T12:25:17.254Z,29.542
2023-01-01T12:30:17.308Z,29.544
2023-01-01T12:35:17.517Z,29.550
2023-01-01T12:40:22.796Z,29.553
2023-01-01T12:45:17.416Z,29.551
2023-01-01T12:50:17.441Z,29.552
2023-01-01T12:55:18.487Z,29.554
2023-01-01T13:00:17.371Z,29.555
2023-01-01T13:05:17.409Z,29.559
2023-01-01T13:10:17.457Z,29.565
2023-01-01T13:15:17.493Z,29.564
2023-01-01T13:20:17.684Z,29.567
2023-01-01T13:25:17.508Z,29.571
2023-01-01T13:30:17.749Z,29.574
2023-01-01T13:35:17.558Z,29.574
2023-01-01T13:40:17.450Z,29.579
2023-01-01T13:45:36.571Z,29.582
2023-01-01T13:50:17.909Z,29.583
2023-01-01T13:55:17.896Z,29.587
2023-01-01T14:00:17.490Z,29.591
2023-01-01T14:05:17.761Z,29.592
2023-01-01T14:10:17.514Z,29.592
2023-01-01T14:15:17.519Z,29.593
2023-01-01T14:20:17.728Z,29.595
2023-01-01T14:25:17.798Z,29.600
2023-01-01T14:30:17.782Z,29.605
2023-01-01T14:35:17.655Z,29.608
2023-01-01T14:40:17.798Z,29.608
2023-01-01T14:45:17.613Z,29.610
2023-01-01T14:50:17.794Z,29.611
2023-01-01T14:55:17.569Z,29.609
2023-01-01T15:00:17.712Z,29.610
2023-01-01T15:05:18.083Z,29.615
2023-01-01T15:10:17.797Z,29.612
2023-01-01T15:15:17.880Z,29.614
2023-01-01T15:20:18.028Z,29.617
2023-01-01T15:25:17.713Z,29.615
2023-01-01T15:30:17.781Z,29.614
2023-01-01T15:35:18.019Z,29.616
2023-01-01T15:40:17.922Z,29.618
2023-01-01T15:45:17.748Z,29.623
2023-01-01T15:50:17.977Z,29.624
2023-01-01T15:55:17.748Z,29.627
2023-01-01T16:00:17.824Z,29.629
2023-01-01T16:05:17.826Z,29.636
2023-01-01T16:10:17.903Z,29.637
2023-01-01T16:15:18.008Z,29.637
2023-01-01T16:20:18.299Z,29.638
2023-01-01T16:25:18.016Z,29.639
2023-01-01T16:30:17.980Z,29.643
2023-01-01T16:35:17.987Z,29.646
2023-01-01T16:40:18.213Z,29.645
2023-01-01T16:45:17.987Z,29.645
2023-01-01T16:50:18.123Z,29.645
2023-01-01T16:55:18.003Z,29.645
2023-01-01T17:00:18.037Z,29.645
2023-01-01T17:05:18.083Z,29.644
2023-01-01T17:10:18.178Z,29.648
2023-01-01T17:15:17.984Z,29.652
2023-01-01T17:20:18.268Z,29.651
2023-01-01T17:25:18.265Z,29.650
2023-01-01T17:30:18.067Z,29.651
2023-01-01T17:35:18.731Z,29.650
2023-01-01T17:40:18.775Z,29.653
2023-01-01T17:45:18.243Z,29.656
2023-01-01T17:50:18.519Z,29.652
2023-01-01T17:55:18.144Z,29.651
2023-01-01T18:00:18.453Z,29.654
2023-01-01T18:05:18.226Z,29.657
2023-01-01T18:10:18.163Z,29.659
2023-01-01T18:15:18.331Z,29.662
2023-01-01T18:20:16.483Z,29.659
2023-01-01T18:25:18.220Z,29.660
2023-01-01T18:30:18.337Z,29.663
2023-01-01T18:35:16.451Z,29.664
2023-01-01T18:40:16.301Z,29.666
2023-01-01T18:45:16.484Z,29.664
2023-01-01T18:50:16.704Z,29.666
2023-01-01T18:55:16.250Z,29.670
2023-01-01T19:00:16.622Z,29.672
2023-01-01T19:05:16.587Z,29.674
2023-01-01T19:10:16.361Z,29.676
2023-01-01T19:15:16.282Z,29.684
2023-01-01T19:20:16.546Z,29.687
2023-01-01T19:25:16.385Z,29.692
2023-01-01T19:30:16.637Z,29.692
2023-01-01T19:35:16.791Z,29.695
2023-01-01T19:40:16.639Z,29.698
2023-01-01T19:45:16.348Z,29.705
2023-01-01T19:50:16.481Z,29.707
2023-01-01T19:55:16.556Z,29.704
2023-01-01T20:00:16.638Z,29.702
2023-01-01T20:05:16.774Z,29.709
2023-01-01T20:10:16.414Z,29.712
2023-01-01T20:15:16.589Z,29.712
2023-01-01T20:20:16.564Z,29.718
2023-01-01T20:25:16.483Z,29.720
2023-01-01T20:30:16.637Z,29.723
2023-01-01T20:35:16.528Z,29.727
2023-01-01T20:40:16.571Z,29.729
2023-01-01T20:45:16.511Z,29.733
2023-01-01T20:50:17.040Z,29.733
2023-01-01T20:55:16.535Z,29.733
2023-01-01T21:00:16.624Z,29.736
2023-01-01T21:05:16.881Z,29.742
2023-01-01T21:20:22.390Z,29.752
2023-01-01T21:25:49.777Z,29.756
2023-01-01T21:30:16.650Z,29.754
2023-01-01T21:35:16.683Z,29.757
2023-01-01T21:40:16.729Z,29.759
2023-01-01T21:45:16.647Z,29.760
2023-01-01T21:50:16.771Z,29.770
2023-01-01T21:55:16.769Z,29.770
2023-01-01T22:00:16.993Z,29.764
2023-01-01T22:05:16.728Z,29.763
2023-01-01T22:10:16.980Z,29.766
2023-01-01T22:15:16.661Z,29.769
2023-01-01T22:20:17.152Z,29.766
2023-01-01T22:25:16.787Z,29.768
2023-01-01T22:30:16.776Z,29.774
2023-01-01T22:35:17.330Z,29.775
2023-01-01T22:40:16.995Z,29.779
2023-01-01T22:45:16.784Z,29.780
2023-01-01T22:50:16.892Z,29.781
2023-01-01T22:55:17.561Z,29.786
2023-01-01T23:00:17.029Z,29.785
2023-01-01T23:05:16.911Z,29.788
2023-01-01T23:10:17.119Z,29.789
2023-01-01T23:15:16.879Z,29.794
2023-01-01T23:20:17.340Z,29.793
2023-01-01T23:25:16.915Z,29.797
2023-01-01T23:30:17.138Z,29.799
2023-01-01T23:35:17.066Z,29.799
2023-01-01T23:40:16.953Z,29.798
2023-01-01T23:45:17.005Z,29.797
2023-01-01T23:50:17.498Z,29.798
2023-01-01T23:55:17.084Z,29.798
